Villa Gesell, Argentina

2:06 PM ART on October 30, 2014 (GMT -0300)
Mar Del Plata International | Change Station
CLOSE
Current Station
Airport
Location: Mar del Plata,
Elevation: 69 ft
Nearby Weather Stations

Elev 69 ft 37.93 °S, 57.57 °W | Updated 1 hour ago

Clear
Clear
68 °F
Feels Like 68 °F
N
16
Wind Variable Wind from West

Today
High -- | Low -- °F
--% Chance of Precip.
Yesterday
High -- | Low -- °F
Precip. -- in
5:44 AM 7:19 PM
Waxing Crescent, 45% visible
Pressure 29.77 in
Visibility -9999.0 miles
Clouds
Dew Point 39 °F
Humidity 35%
Rainfall 0.00 in
Snow Depth Not available.
UV Not available.
Pollen Not available.
Air Quality Not available.
Flu Activity Not available.
METAR SAZM 301600Z 27014KT CAVOK 20/04 Q1008

More Conditions Fewer Conditions

Pressure 29.77 in
Visibility -9999.0 miles
Clouds
Dew Point 39 °F
Humidity 35%
Rainfall 0.00 in
Snow Depth Not available.
UV Not available.
Pollen Not available.
Air Quality Not available.
Flu Activity Not available.
METAR SAZM 301600Z 27014KT CAVOK 20/04 Q1008

More Conditions Fewer Conditions

10-Day Weather Forecast

Almanac

Astronomy

Oct. 30, 2014 Rise Set
Actual Time
Civil Twilight
Nautical Twilight
Astronomical Twilight
Moon
Length of Visible Light
Length of Day
Tomorrow will be .
, % of the Moon is Illuminated

Today's Extremes

Country Highs Country Lows

Community

WunderPhotos

Upload Photos

1,766,403 photos uploaded!

WunderBlogs® & News

Nearby

Air Quality

  Air Quality AQ Index Pollutant
Not available.

Snow Depth

Station Depth Elevation

Earthquake Activity

City Distance Mag. Time & Date
Minimum magnitude displayed is 2.5.

Coastal Water Temperatures

Place Temperature

Nearby Weather Stations